sensor_id;sensor_type;location;lat;lon;timestamp;P1;durP1;ratioP1;P2;durP2;ratioP2
71769;SDS011;66386;52.122;5.420;2023-01-23T00:00:44;9.30;;;5.60;;
71769;SDS011;66386;52.122;5.420;2023-01-23T00:03:13;15.70;;;6.37;;
71769;SDS011;66386;52.122;5.420;2023-01-23T00:05:39;12.82;;;6.07;;
71769;SDS011;66386;52.122;5.420;2023-01-23T00:08:06;9.00;;;5.35;;
71769;SDS011;66386;52.122;5.420;2023-01-23T00:10:32;10.10;;;6.03;;
71769;SDS011;66386;52.122;5.420;2023-01-23T00:12:59;14.73;;;7.03;;
71769;SDS011;66386;52.122;5.420;2023-01-23T00:15:25;11.60;;;6.13;;
71769;SDS011;66386;52.122;5.420;2023-01-23T00:17:52;13.23;;;6.10;;
71769;SDS011;66386;52.122;5.420;2023-01-23T00:20:19;10.70;;;6.10;;
71769;SDS011;66386;52.122;5.420;2023-01-23T00:22:46;14.77;;;6.35;;
71769;SDS011;66386;52.122;5.420;2023-01-23T00:25:12;13.73;;;7.05;;
71769;SDS011;66386;52.122;5.420;2023-01-23T00:27:38;10.83;;;6.17;;
71769;SDS011;66386;52.122;5.420;2023-01-23T00:30:05;15.82;;;6.18;;
71769;SDS011;66386;52.122;5.420;2023-01-23T00:32:32;11.77;;;6.38;;
71769;SDS011;66386;52.122;5.420;2023-01-23T00:34:58;11.25;;;6.25;;
71769;SDS011;66386;52.122;5.420;2023-01-23T00:37:25;14.25;;;6.47;;
71769;SDS011;66386;52.122;5.420;2023-01-23T00:39:52;12.77;;;6.23;;
71769;SDS011;66386;52.122;5.420;2023-01-23T00:42:18;13.98;;;6.28;;
71769;SDS011;66386;52.122;5.420;2023-01-23T00:44:45;13.55;;;5.18;;
71769;SDS011;66386;52.122;5.420;2023-01-23T00:47:11;16.55;;;6.22;;
71769;SDS011;66386;52.122;5.420;2023-01-23T00:49:38;14.68;;;5.88;;
71769;SDS011;66386;52.122;5.420;2023-01-23T00:52:04;10.03;;;5.70;;
71769;SDS011;66386;52.122;5.420;2023-01-23T00:54:31;10.73;;;5.50;;
71769;SDS011;66386;52.122;5.420;2023-01-23T00:56:57;12.10;;;5.30;;
71769;SDS011;66386;52.122;5.420;2023-01-23T00:59:24;13.48;;;5.53;;
71769;SDS011;66386;52.122;5.420;2023-01-23T01:01:50;14.23;;;6.13;;
71769;SDS011;66386;52.122;5.420;2023-01-23T01:04:17;11.07;;;5.90;;
71769;SDS011;66386;52.122;5.420;2023-01-23T01:06:43;11.00;;;5.65;;
71769;SDS011;66386;52.122;5.420;2023-01-23T01:09:10;13.95;;;6.20;;
71769;SDS011;66386;52.122;5.420;2023-01-23T01:11:36;18.05;;;6.45;;
71769;SDS011;66386;52.122;5.420;2023-01-23T01:14:03;12.52;;;5.70;;
71769;SDS011;66386;52.122;5.420;2023-01-23T01:16:30;12.63;;;6.40;;
71769;SDS011;66386;52.122;5.420;2023-01-23T01:18:56;11.40;;;5.63;;
71769;SDS011;66386;52.122;5.420;2023-01-23T01:21:23;10.48;;;6.05;;
71769;SDS011;66386;52.122;5.420;2023-01-23T01:23:49;12.65;;;6.25;;
71769;SDS011;66386;52.122;5.420;2023-01-23T01:26:16;14.18;;;5.75;;
71769;SDS011;66386;52.122;5.420;2023-01-23T01:28:43;15.97;;;6.93;;
71769;SDS011;66386;52.122;5.420;2023-01-23T01:31:13;14.38;;;6.88;;
71769;SDS011;66386;52.122;5.420;2023-01-23T01:33:42;13.02;;;6.75;;
71769;SDS011;66386;52.122;5.420;2023-01-23T01:36:09;12.30;;;6.28;;
71769;SDS011;66386;52.122;5.420;2023-01-23T01:38:37;13.43;;;5.70;;
71769;SDS011;66386;52.122;5.420;2023-01-23T01:41:04;12.67;;;6.23;;
71769;SDS011;66386;52.122;5.420;2023-01-23T01:43:32;11.18;;;5.70;;
71769;SDS011;66386;52.122;5.420;2023-01-23T01:46:10;20.10;;;6.22;;
71769;SDS011;66386;52.122;5.420;2023-01-23T01:51:38;13.27;;;6.05;;
71769;SDS011;66386;52.122;5.420;2023-01-23T01:59:37;12.75;;;5.90;;
71769;SDS011;66386;52.122;5.420;2023-01-23T02:02:10;13.88;;;6.82;;
71769;SDS011;66386;52.122;5.420;2023-01-23T02:04:41;9.63;;;6.25;;
71769;SDS011;66386;52.122;5.420;2023-01-23T02:07:12;12.13;;;6.30;;
71769;SDS011;66386;52.122;5.420;2023-01-23T02:09:44;13.70;;;6.25;;
71769;SDS011;66386;52.122;5.420;2023-01-23T02:12:11;14.02;;;6.25;;
71769;SDS011;66386;52.122;5.420;2023-01-23T02:14:38;14.90;;;6.35;;
71769;SDS011;66386;52.122;5.420;2023-01-23T02:17:05;15.77;;;6.03;;
71769;SDS011;66386;52.122;5.420;2023-01-23T02:19:45;15.90;;;6.07;;
71769;SDS011;66386;52.122;5.420;2023-01-23T02:25:21;12.98;;;6.13;;
71769;SDS011;66386;52.122;5.420;2023-01-23T02:27:56;15.57;;;6.88;;
71769;SDS011;66386;52.122;5.420;2023-01-23T02:30:23;12.60;;;5.70;;
71769;SDS011;66386;52.122;5.420;2023-01-23T02:32:50;18.80;;;7.03;;
71769;SDS011;66386;52.122;5.420;2023-01-23T02:35:22;15.88;;;6.30;;
71769;SDS011;66386;52.122;5.420;2023-01-23T02:37:53;16.42;;;6.85;;
71769;SDS011;66386;52.122;5.420;2023-01-23T02:40:30;17.65;;;7.00;;
71769;SDS011;66386;52.122;5.420;2023-01-23T02:43:02;13.40;;;7.22;;
71769;SDS011;66386;52.122;5.420;2023-01-23T02:45:31;13.50;;;6.53;;
71769;SDS011;66386;52.122;5.420;2023-01-23T02:47:58;12.40;;;6.60;;
71769;SDS011;66386;52.122;5.420;2023-01-23T02:50:27;17.75;;;7.30;;
71769;SDS011;66386;52.122;5.420;2023-01-23T02:52:54;17.40;;;7.32;;
71769;SDS011;66386;52.122;5.420;2023-01-23T02:55:23;16.98;;;7.28;;
71769;SDS011;66386;52.122;5.420;2023-01-23T02:57:58;12.87;;;6.43;;
71769;SDS011;66386;52.122;5.420;2023-01-23T03:00:46;16.38;;;6.13;;
71769;SDS011;66386;52.122;5.420;2023-01-23T03:03:13;11.40;;;6.50;;
71769;SDS011;66386;52.122;5.420;2023-01-23T03:05:41;18.80;;;7.80;;
71769;SDS011;66386;52.122;5.420;2023-01-23T03:08:07;20.67;;;7.13;;
71769;SDS011;66386;52.122;5.420;2023-01-23T03:10:34;15.70;;;6.83;;
71769;SDS011;66386;52.122;5.420;2023-01-23T03:13:01;12.80;;;6.72;;
71769;SDS011;66386;52.122;5.420;2023-01-23T03:15:29;14.13;;;6.68;;
71769;SDS011;66386;52.122;5.420;2023-01-23T03:17:56;17.38;;;6.65;;
71769;SDS011;66386;52.122;5.420;2023-01-23T03:20:23;14.95;;;6.57;;
71769;SDS011;66386;52.122;5.420;2023-01-23T03:22:49;16.20;;;6.20;;
71769;SDS011;66386;52.122;5.420;2023-01-23T03:25:16;10.68;;;6.45;;
71769;SDS011;66386;52.122;5.420;2023-01-23T03:27:42;15.45;;;6.40;;
71769;SDS011;66386;52.122;5.420;2023-01-23T03:30:10;14.93;;;6.43;;
71769;SDS011;66386;52.122;5.420;2023-01-23T03:32:38;13.27;;;6.50;;
71769;SDS011;66386;52.122;5.420;2023-01-23T03:35:06;15.47;;;5.63;;
71769;SDS011;66386;52.122;5.420;2023-01-23T03:37:35;11.30;;;6.65;;
71769;SDS011;66386;52.122;5.420;2023-01-23T03:40:02;12.95;;;6.85;;
71769;SDS011;66386;52.122;5.420;2023-01-23T03:42:47;13.07;;;6.57;;
71769;SDS011;66386;52.122;5.420;2023-01-23T03:45:14;12.65;;;6.90;;
71769;SDS011;66386;52.122;5.420;2023-01-23T03:47:40;17.17;;;6.30;;
71769;SDS011;66386;52.122;5.420;2023-01-23T03:50:07;10.23;;;5.40;;
71769;SDS011;66386;52.122;5.420;2023-01-23T03:52:34;13.52;;;6.70;;
71769;SDS011;66386;52.122;5.420;2023-01-23T03:55:03;10.80;;;6.05;;
71769;SDS011;66386;52.122;5.420;2023-01-23T03:57:29;15.85;;;7.05;;
71769;SDS011;66386;52.122;5.420;2023-01-23T03:59:56;13.40;;;6.20;;
71769;SDS011;66386;52.122;5.420;2023-01-23T04:02:23;14.52;;;6.43;;
71769;SDS011;66386;52.122;5.420;2023-01-23T04:04:49;11.95;;;6.47;;
71769;SDS011;66386;52.122;5.420;2023-01-23T04:07:16;16.35;;;6.68;;
71769;SDS011;66386;52.122;5.420;2023-01-23T04:09:42;14.25;;;6.85;;
71769;SDS011;66386;52.122;5.420;2023-01-23T04:12:09;15.20;;;7.43;;
71769;SDS011;66386;52.122;5.420;2023-01-23T04:14:35;13.02;;;6.65;;
71769;SDS011;66386;52.122;5.420;2023-01-23T04:17:03;14.55;;;6.95;;
71769;SDS011;66386;52.122;5.420;2023-01-23T04:19:30;15.68;;;7.20;;
71769;SDS011;66386;52.122;5.420;2023-01-23T04:21:57;17.10;;;7.47;;
71769;SDS011;66386;52.122;5.420;2023-01-23T04:24:24;15.30;;;6.90;;
71769;SDS011;66386;52.122;5.420;2023-01-23T04:26:50;15.65;;;6.90;;
71769;SDS011;66386;52.122;5.420;2023-01-23T04:29:17;15.35;;;7.25;;
71769;SDS011;66386;52.122;5.420;2023-01-23T04:31:44;15.15;;;7.63;;
71769;SDS011;66386;52.122;5.420;2023-01-23T04:34:11;15.63;;;7.38;;
71769;SDS011;66386;52.122;5.420;2023-01-23T04:36:37;15.17;;;6.67;;
71769;SDS011;66386;52.122;5.420;2023-01-23T04:39:04;20.83;;;7.13;;
71769;SDS011;66386;52.122;5.420;2023-01-23T04:41:31;15.73;;;7.65;;
71769;SDS011;66386;52.122;5.420;2023-01-23T04:43:58;13.70;;;7.07;;
71769;SDS011;66386;52.122;5.420;2023-01-23T04:46:48;12.98;;;6.93;;
71769;SDS011;66386;52.122;5.420;2023-01-23T04:49:16;19.90;;;7.17;;
71769;SDS011;66386;52.122;5.420;2023-01-23T04:51:44;15.35;;;7.00;;
71769;SDS011;66386;52.122;5.420;2023-01-23T04:54:13;17.13;;;8.07;;
71769;SDS011;66386;52.122;5.420;2023-01-23T04:56:39;14.40;;;7.22;;
71769;SDS011;66386;52.122;5.420;2023-01-23T04:59:06;16.45;;;8.13;;
71769;SDS011;66386;52.122;5.420;2023-01-23T05:01:32;13.53;;;7.00;;
71769;SDS011;66386;52.122;5.420;2023-01-23T05:03:59;17.05;;;7.57;;
71769;SDS011;66386;52.122;5.420;2023-01-23T05:06:26;17.13;;;8.00;;
71769;SDS011;66386;52.122;5.420;2023-01-23T05:08:52;14.98;;;7.10;;
71769;SDS011;66386;52.122;5.420;2023-01-23T05:11:19;18.30;;;7.05;;
71769;SDS011;66386;52.122;5.420;2023-01-23T05:13:45;14.70;;;7.50;;
71769;SDS011;66386;52.122;5.420;2023-01-23T05:16:12;13.93;;;7.93;;
71769;SDS011;66386;52.122;5.420;2023-01-23T05:18:39;14.43;;;7.43;;
71769;SDS011;66386;52.122;5.420;2023-01-23T05:21:06;13.98;;;7.10;;
71769;SDS011;66386;52.122;5.420;2023-01-23T05:23:32;12.95;;;6.82;;
71769;SDS011;66386;52.122;5.420;2023-01-23T05:25:59;12.53;;;6.97;;
71769;SDS011;66386;52.122;5.420;2023-01-23T05:28:25;14.20;;;7.10;;
71769;SDS011;66386;52.122;5.420;2023-01-23T05:30:52;16.10;;;7.80;;
71769;SDS011;66386;52.122;5.420;2023-01-23T05:33:18;18.95;;;8.20;;
71769;SDS011;66386;52.122;5.420;2023-01-23T05:35:45;15.55;;;7.20;;
71769;SDS011;66386;52.122;5.420;2023-01-23T05:38:11;13.00;;;6.87;;
71769;SDS011;66386;52.122;5.420;2023-01-23T05:40:39;16.52;;;7.35;;
71769;SDS011;66386;52.122;5.420;2023-01-23T05:43:05;15.75;;;7.82;;
71769;SDS011;66386;52.122;5.420;2023-01-23T05:45:32;14.63;;;7.90;;
71769;SDS011;66386;52.122;5.420;2023-01-23T05:47:59;14.20;;;8.07;;
71769;SDS011;66386;52.122;5.420;2023-01-23T05:50:26;15.63;;;7.10;;
71769;SDS011;66386;52.122;5.420;2023-01-23T05:52:52;16.63;;;7.60;;
71769;SDS011;66386;52.122;5.420;2023-01-23T05:55:19;13.50;;;7.65;;
71769;SDS011;66386;52.122;5.420;2023-01-23T05:57:45;19.70;;;7.45;;
71769;SDS011;66386;52.122;5.420;2023-01-23T06:00:12;14.48;;;6.78;;
71769;SDS011;66386;52.122;5.420;2023-01-23T06:02:39;17.97;;;7.30;;
71769;SDS011;66386;52.122;5.420;2023-01-23T06:05:06;17.02;;;7.53;;
71769;SDS011;66386;52.122;5.420;2023-01-23T06:07:33;14.10;;;7.13;;
71769;SDS011;66386;52.122;5.420;2023-01-23T06:10:00;13.65;;;6.82;;
71769;SDS011;66386;52.122;5.420;2023-01-23T06:12:26;13.98;;;7.03;;
71769;SDS011;66386;52.122;5.420;2023-01-23T06:14:53;14.47;;;7.63;;
71769;SDS011;66386;52.122;5.420;2023-01-23T06:17:19;18.70;;;7.22;;
71769;SDS011;66386;52.122;5.420;2023-01-23T06:19:46;16.38;;;7.60;;
71769;SDS011;66386;52.122;5.420;2023-01-23T06:22:13;20.13;;;7.90;;
71769;SDS011;66386;52.122;5.420;2023-01-23T06:24:40;13.50;;;7.43;;
71769;SDS011;66386;52.122;5.420;2023-01-23T06:27:06;15.17;;;7.20;;
71769;SDS011;66386;52.122;5.420;2023-01-23T06:29:34;17.13;;;7.35;;
71769;SDS011;66386;52.122;5.420;2023-01-23T06:32:01;14.45;;;7.88;;
71769;SDS011;66386;52.122;5.420;2023-01-23T06:34:28;14.05;;;8.18;;
71769;SDS011;66386;52.122;5.420;2023-01-23T06:36:55;16.90;;;8.10;;
71769;SDS011;66386;52.122;5.420;2023-01-23T06:39:21;18.70;;;7.57;;
71769;SDS011;66386;52.122;5.420;2023-01-23T06:41:48;14.10;;;7.28;;
71769;SDS011;66386;52.122;5.420;2023-01-23T06:44:14;17.70;;;7.57;;
71769;SDS011;66386;52.122;5.420;2023-01-23T06:46:41;17.63;;;8.00;;
71769;SDS011;66386;52.122;5.420;2023-01-23T06:49:08;17.80;;;7.78;;
71769;SDS011;66386;52.122;5.420;2023-01-23T06:51:35;14.53;;;7.77;;
71769;SDS011;66386;52.122;5.420;2023-01-23T06:54:02;16.70;;;7.95;;
71769;SDS011;66386;52.122;5.420;2023-01-23T06:56:28;15.52;;;7.72;;
71769;SDS011;66386;52.122;5.420;2023-01-23T06:58:55;19.52;;;7.65;;
71769;SDS011;66386;52.122;5.420;2023-01-23T07:01:21;15.57;;;8.25;;
71769;SDS011;66386;52.122;5.420;2023-01-23T07:03:49;18.67;;;7.97;;
71769;SDS011;66386;52.122;5.420;2023-01-23T07:06:15;15.00;;;7.63;;
71769;SDS011;66386;52.122;5.420;2023-01-23T07:08:42;20.02;;;8.18;;
71769;SDS011;66386;52.122;5.420;2023-01-23T07:11:09;15.30;;;7.93;;
71769;SDS011;66386;52.122;5.420;2023-01-23T07:13:35;20.45;;;8.80;;
71769;SDS011;66386;52.122;5.420;2023-01-23T07:16:02;14.80;;;8.00;;
71769;SDS011;66386;52.122;5.420;2023-01-23T07:18:30;16.25;;;8.20;;
71769;SDS011;66386;52.122;5.420;2023-01-23T07:20:57;15.55;;;8.20;;
71769;SDS011;66386;52.122;5.420;2023-01-23T07:23:24;15.63;;;8.70;;
71769;SDS011;66386;52.122;5.420;2023-01-23T07:25:50;17.80;;;8.35;;
71769;SDS011;66386;52.122;5.420;2023-01-23T07:28:24;18.03;;;7.67;;
71769;SDS011;66386;52.122;5.420;2023-01-23T07:30:50;17.25;;;8.75;;
71769;SDS011;66386;52.122;5.420;2023-01-23T07:33:17;19.40;;;9.23;;
71769;SDS011;66386;52.122;5.420;2023-01-23T07:35:44;18.52;;;8.55;;
71769;SDS011;66386;52.122;5.420;2023-01-23T07:38:10;17.48;;;8.50;;
71769;SDS011;66386;52.122;5.420;2023-01-23T07:40:37;16.83;;;9.07;;
71769;SDS011;66386;52.122;5.420;2023-01-23T07:43:04;15.85;;;8.48;;
71769;SDS011;66386;52.122;5.420;2023-01-23T07:45:30;16.20;;;8.98;;
71769;SDS011;66386;52.122;5.420;2023-01-23T07:47:57;18.20;;;9.25;;
71769;SDS011;66386;52.122;5.420;2023-01-23T07:50:23;20.38;;;8.30;;
71769;SDS011;66386;52.122;5.420;2023-01-23T07:52:50;20.87;;;8.47;;
71769;SDS011;66386;52.122;5.420;2023-01-23T07:55:16;20.10;;;8.15;;
71769;SDS011;66386;52.122;5.420;2023-01-23T07:57:43;17.02;;;8.50;;
71769;SDS011;66386;52.122;5.420;2023-01-23T08:00:10;17.85;;;8.07;;
71769;SDS011;66386;52.122;5.420;2023-01-23T08:02:37;14.65;;;8.02;;
71769;SDS011;66386;52.122;5.420;2023-01-23T08:05:03;17.73;;;9.23;;
71769;SDS011;66386;52.122;5.420;2023-01-23T08:07:30;17.73;;;8.02;;
71769;SDS011;66386;52.122;5.420;2023-01-23T08:09:57;15.93;;;9.00;;
71769;SDS011;66386;52.122;5.420;2023-01-23T08:12:23;18.13;;;8.55;;
71769;SDS011;66386;52.122;5.420;2023-01-23T08:14:50;17.20;;;8.18;;
71769;SDS011;66386;52.122;5.420;2023-01-23T08:17:16;15.73;;;7.90;;
71769;SDS011;66386;52.122;5.420;2023-01-23T08:19:43;14.13;;;7.22;;
71769;SDS011;66386;52.122;5.420;2023-01-23T08:22:09;16.67;;;8.77;;
71769;SDS011;66386;52.122;5.420;2023-01-23T08:24:36;19.92;;;8.00;;
71769;SDS011;66386;52.122;5.420;2023-01-23T08:27:02;16.75;;;8.13;;
71769;SDS011;66386;52.122;5.420;2023-01-23T08:29:29;16.30;;;8.30;;
71769;SDS011;66386;52.122;5.420;2023-01-23T08:31:56;17.70;;;8.27;;
71769;SDS011;66386;52.122;5.420;2023-01-23T08:34:23;15.75;;;8.55;;
71769;SDS011;66386;52.122;5.420;2023-01-23T08:36:49;19.52;;;8.80;;
71769;SDS011;66386;52.122;5.420;2023-01-23T08:39:16;16.92;;;8.48;;
71769;SDS011;66386;52.122;5.420;2023-01-23T08:41:43;18.30;;;8.10;;
71769;SDS011;66386;52.122;5.420;2023-01-23T08:44:09;15.85;;;8.57;;
71769;SDS011;66386;52.122;5.420;2023-01-23T08:46:36;18.38;;;9.32;;
71769;SDS011;66386;52.122;5.420;2023-01-23T08:49:03;18.13;;;8.60;;
71769;SDS011;66386;52.122;5.420;2023-01-23T08:51:30;18.33;;;9.27;;
71769;SDS011;66386;52.122;5.420;2023-01-23T08:53:58;16.60;;;8.90;;
71769;SDS011;66386;52.122;5.420;2023-01-23T08:56:24;19.08;;;8.77;;
71769;SDS011;66386;52.122;5.420;2023-01-23T08:58:51;18.42;;;8.60;;
71769;SDS011;66386;52.122;5.420;2023-01-23T09:01:18;18.38;;;9.10;;
71769;SDS011;66386;52.122;5.420;2023-01-23T09:03:47;17.92;;;9.18;;
71769;SDS011;66386;52.122;5.420;2023-01-23T09:06:15;19.37;;;8.90;;
71769;SDS011;66386;52.122;5.420;2023-01-23T09:08:42;17.88;;;9.77;;
71769;SDS011;66386;52.122;5.420;2023-01-23T09:11:10;17.25;;;9.43;;
71769;SDS011;66386;52.122;5.420;2023-01-23T09:13:38;16.52;;;9.27;;
71769;SDS011;66386;52.122;5.420;2023-01-23T09:16:05;12.75;;;8.18;;
71769;SDS011;66386;52.122;5.420;2023-01-23T09:18:33;16.10;;;8.13;;
71769;SDS011;66386;52.122;5.420;2023-01-23T09:21:04;16.83;;;8.65;;
71769;SDS011;66386;52.122;5.420;2023-01-23T09:23:35;16.27;;;9.48;;
71769;SDS011;66386;52.122;5.420;2023-01-23T09:26:03;20.65;;;9.65;;
71769;SDS011;66386;52.122;5.420;2023-01-23T09:28:30;15.88;;;9.48;;
71769;SDS011;66386;52.122;5.420;2023-01-23T09:31:00;21.20;;;9.77;;
71769;SDS011;66386;52.122;5.420;2023-01-23T09:33:29;20.40;;;9.43;;
71769;SDS011;66386;52.122;5.420;2023-01-23T09:35:55;16.67;;;9.73;;
71769;SDS011;66386;52.122;5.420;2023-01-23T09:38:22;21.77;;;10.05;;
71769;SDS011;66386;52.122;5.420;2023-01-23T09:40:50;19.45;;;10.30;;
71769;SDS011;66386;52.122;5.420;2023-01-23T09:46:19;16.05;;;9.02;;
71769;SDS011;66386;52.122;5.420;2023-01-23T09:48:47;19.23;;;8.50;;
71769;SDS011;66386;52.122;5.420;2023-01-23T09:54:28;16.42;;;9.10;;
71769;SDS011;66386;52.122;5.420;2023-01-23T09:57:00;14.80;;;9.13;;
71769;SDS011;66386;52.122;5.420;2023-01-23T09:59:34;20.50;;;9.48;;
71769;SDS011;66386;52.122;5.420;2023-01-23T10:02:20;19.30;;;9.25;;
71769;SDS011;66386;52.122;5.420;2023-01-23T10:04:51;17.90;;;9.35;;
71769;SDS011;66386;52.122;5.420;2023-01-23T10:18:47;16.48;;;9.38;;
71769;SDS011;66386;52.122;5.420;2023-01-23T10:26:25;14.18;;;8.40;;
71769;SDS011;66386;52.122;5.420;2023-01-23T10:28:58;15.65;;;7.85;;
71769;SDS011;66386;52.122;5.420;2023-01-23T10:31:31;17.63;;;9.15;;
71769;SDS011;66386;52.122;5.420;2023-01-23T10:34:10;19.10;;;9.07;;
71769;SDS011;66386;52.122;5.420;2023-01-23T10:40:04;14.80;;;8.45;;
71769;SDS011;66386;52.122;5.420;2023-01-23T10:42:36;17.52;;;8.95;;
71769;SDS011;66386;52.122;5.420;2023-01-23T10:45:03;13.63;;;8.18;;
71769;SDS011;66386;52.122;5.420;2023-01-23T10:47:52;13.27;;;7.22;;
71769;SDS011;66386;52.122;5.420;2023-01-23T10:50:38;15.47;;;7.97;;
71769;SDS011;66386;52.122;5.420;2023-01-23T10:53:06;15.32;;;8.20;;
71769;SDS011;66386;52.122;5.420;2023-01-23T10:55:43;15.30;;;7.65;;
71769;SDS011;66386;52.122;5.420;2023-01-23T11:01:27;12.93;;;7.57;;
71769;SDS011;66386;52.122;5.420;2023-01-23T11:03:56;14.37;;;8.03;;
71769;SDS011;66386;52.122;5.420;2023-01-23T11:06:35;13.40;;;7.30;;
71769;SDS011;66386;52.122;5.420;2023-01-23T11:09:02;12.55;;;6.93;;
71769;SDS011;66386;52.122;5.420;2023-01-23T11:11:30;13.32;;;7.72;;
71769;SDS011;66386;52.122;5.420;2023-01-23T11:14:03;17.15;;;7.80;;
71769;SDS011;66386;52.122;5.420;2023-01-23T11:16:36;13.43;;;8.50;;
71769;SDS011;66386;52.122;5.420;2023-01-23T11:21:33;15.43;;;7.97;;
71769;SDS011;66386;52.122;5.420;2023-01-23T11:24:06;11.82;;;7.72;;
71769;SDS011;66386;52.122;5.420;2023-01-23T11:27:04;12.30;;;7.55;;
71769;SDS011;66386;52.122;5.420;2023-01-23T11:29:45;13.97;;;7.90;;
71769;SDS011;66386;52.122;5.420;2023-01-23T11:32:13;13.50;;;7.60;;
71769;SDS011;66386;52.122;5.420;2023-01-23T11:34:44;13.70;;;7.75;;
71769;SDS011;66386;52.122;5.420;2023-01-23T11:37:19;15.43;;;8.55;;
71769;SDS011;66386;52.122;5.420;2023-01-23T11:39:56;14.55;;;8.25;;
71769;SDS011;66386;52.122;5.420;2023-01-23T11:42:27;16.10;;;7.87;;
71769;SDS011;66386;52.122;5.420;2023-01-23T11:44:57;14.98;;;7.95;;
71769;SDS011;66386;52.122;5.420;2023-01-23T12:04:05;14.32;;;8.32;;
71769;SDS011;66386;52.122;5.420;2023-01-23T12:06:48;13.90;;;8.27;;
71769;SDS011;66386;52.122;5.420;2023-01-23T12:09:23;14.00;;;8.13;;
71769;SDS011;66386;52.122;5.420;2023-01-23T12:12:19;13.48;;;7.47;;
71769;SDS011;66386;52.122;5.420;2023-01-23T12:23:37;11.23;;;7.70;;
71769;SDS011;66386;52.122;5.420;2023-01-23T12:26:53;12.05;;;7.57;;
71769;SDS011;66386;52.122;5.420;2023-01-23T12:29:31;14.77;;;7.53;;
71769;SDS011;66386;52.122;5.420;2023-01-23T12:40:13;12.75;;;7.57;;
71769;SDS011;66386;52.122;5.420;2023-01-23T12:43:06;11.82;;;7.32;;
71769;SDS011;66386;52.122;5.420;2023-01-23T12:45:40;15.27;;;6.60;;
71769;SDS011;66386;52.122;5.420;2023-01-23T12:48:15;12.07;;;7.78;;
71769;SDS011;66386;52.122;5.420;2023-01-23T12:50:49;11.87;;;7.07;;
71769;SDS011;66386;52.122;5.420;2023-01-23T12:53:19;11.90;;;7.93;;
71769;SDS011;66386;52.122;5.420;2023-01-23T12:58:36;11.13;;;6.45;;
71769;SDS011;66386;52.122;5.420;2023-01-23T13:01:11;10.27;;;6.22;;
71769;SDS011;66386;52.122;5.420;2023-01-23T13:06:46;13.10;;;7.32;;
71769;SDS011;66386;52.122;5.420;2023-01-23T13:12:09;9.35;;;6.13;;
71769;SDS011;66386;52.122;5.420;2023-01-23T13:14:48;10.57;;;6.65;;
71769;SDS011;66386;52.122;5.420;2023-01-23T13:17:42;13.30;;;7.17;;
71769;SDS011;66386;52.122;5.420;2023-01-23T13:20:21;11.25;;;6.45;;
71769;SDS011;66386;52.122;5.420;2023-01-23T13:23:18;9.73;;;6.55;;
71769;SDS011;66386;52.122;5.420;2023-01-23T13:28:53;11.50;;;6.35;;
71769;SDS011;66386;52.122;5.420;2023-01-23T13:31:24;8.43;;;5.80;;
71769;SDS011;66386;52.122;5.420;2023-01-23T13:36:47;7.88;;;5.53;;
71769;SDS011;66386;52.122;5.420;2023-01-23T13:39:19;9.80;;;6.35;;
71769;SDS011;66386;52.122;5.420;2023-01-23T13:41:51;8.18;;;5.65;;
71769;SDS011;66386;52.122;5.420;2023-01-23T13:44:42;9.93;;;6.03;;
71769;SDS011;66386;52.122;5.420;2023-01-23T13:47:40;9.85;;;6.22;;
71769;SDS011;66386;52.122;5.420;2023-01-23T13:51:15;10.50;;;6.05;;
71769;SDS011;66386;52.122;5.420;2023-01-23T13:53:57;8.38;;;6.00;;
71769;SDS011;66386;52.122;5.420;2023-01-23T13:56:56;10.30;;;5.72;;
71769;SDS011;66386;52.122;5.420;2023-01-23T13:59:37;10.23;;;6.27;;
71769;SDS011;66386;52.122;5.420;2023-01-23T14:05:36;11.30;;;6.57;;
71769;SDS011;66386;52.122;5.420;2023-01-23T14:08:17;12.45;;;6.15;;
71769;SDS011;66386;52.122;5.420;2023-01-23T14:11:00;12.18;;;7.07;;
71769;SDS011;66386;52.122;5.420;2023-01-23T14:14:00;8.17;;;6.37;;
71769;SDS011;66386;52.122;5.420;2023-01-23T14:16:59;13.65;;;7.53;;
71769;SDS011;66386;52.122;5.420;2023-01-23T14:22:28;12.57;;;7.70;;
71769;SDS011;66386;52.122;5.420;2023-01-23T14:24:56;12.27;;;7.13;;
71769;SDS011;66386;52.122;5.420;2023-01-23T14:27:28;10.67;;;6.17;;
71769;SDS011;66386;52.122;5.420;2023-01-23T14:32:44;10.15;;;6.55;;
71769;SDS011;66386;52.122;5.420;2023-01-23T14:35:15;13.73;;;6.80;;
71769;SDS011;66386;52.122;5.420;2023-01-23T14:37:43;14.45;;;7.13;;
71769;SDS011;66386;52.122;5.420;2023-01-23T14:40:16;9.40;;;5.93;;
71769;SDS011;66386;52.122;5.420;2023-01-23T14:43:00;10.55;;;6.00;;
71769;SDS011;66386;52.122;5.420;2023-01-23T14:45:30;10.05;;;6.38;;
71769;SDS011;66386;52.122;5.420;2023-01-23T14:47:59;11.35;;;6.20;;
71769;SDS011;66386;52.122;5.420;2023-01-23T14:50:31;11.82;;;6.25;;
71769;SDS011;66386;52.122;5.420;2023-01-23T14:53:05;8.80;;;5.80;;
71769;SDS011;66386;52.122;5.420;2023-01-23T14:55:38;8.85;;;5.72;;
71769;SDS011;66386;52.122;5.420;2023-01-23T14:58:09;9.43;;;6.07;;
71769;SDS011;66386;52.122;5.420;2023-01-23T15:00:41;10.57;;;6.88;;
71769;SDS011;66386;52.122;5.420;2023-01-23T15:03:10;8.60;;;5.65;;
71769;SDS011;66386;52.122;5.420;2023-01-23T15:05:38;10.17;;;5.70;;
71769;SDS011;66386;52.122;5.420;2023-01-23T15:08:28;9.05;;;5.60;;
71769;SDS011;66386;52.122;5.420;2023-01-23T15:10:57;10.13;;;6.35;;
71769;SDS011;66386;52.122;5.420;2023-01-23T15:13:34;10.75;;;6.28;;
71769;SDS011;66386;52.122;5.420;2023-01-23T15:16:09;7.18;;;5.28;;
71769;SDS011;66386;52.122;5.420;2023-01-23T15:18:50;7.80;;;5.53;;
71769;SDS011;66386;52.122;5.420;2023-01-23T15:21:23;9.88;;;5.68;;
71769;SDS011;66386;52.122;5.420;2023-01-23T15:24:25;8.88;;;5.68;;
71769;SDS011;66386;52.122;5.420;2023-01-23T15:26:56;8.63;;;5.70;;
71769;SDS011;66386;52.122;5.420;2023-01-23T15:29:24;9.88;;;5.75;;
71769;SDS011;66386;52.122;5.420;2023-01-23T15:31:55;9.47;;;6.00;;
71769;SDS011;66386;52.122;5.420;2023-01-23T15:37:03;8.32;;;5.70;;
71769;SDS011;66386;52.122;5.420;2023-01-23T15:44:44;8.67;;;5.47;;
71769;SDS011;66386;52.122;5.420;2023-01-23T15:47:11;8.88;;;5.75;;
71769;SDS011;66386;52.122;5.420;2023-01-23T15:49:38;9.48;;;5.38;;
71769;SDS011;66386;52.122;5.420;2023-01-23T15:54:52;8.68;;;6.28;;
71769;SDS011;66386;52.122;5.420;2023-01-23T15:57:22;11.17;;;6.77;;
71769;SDS011;66386;52.122;5.420;2023-01-23T15:59:48;11.05;;;6.68;;
71769;SDS011;66386;52.122;5.420;2023-01-23T16:02:18;11.75;;;7.55;;
71769;SDS011;66386;52.122;5.420;2023-01-23T16:04:56;10.48;;;6.68;;
71769;SDS011;66386;52.122;5.420;2023-01-23T16:07:24;11.55;;;7.20;;
71769;SDS011;66386;52.122;5.420;2023-01-23T16:09:56;13.87;;;7.37;;
71769;SDS011;66386;52.122;5.420;2023-01-23T16:12:25;9.68;;;7.40;;
71769;SDS011;66386;52.122;5.420;2023-01-23T16:14:53;10.35;;;7.35;;
71769;SDS011;66386;52.122;5.420;2023-01-23T16:17:20;15.23;;;7.10;;
71769;SDS011;66386;52.122;5.420;2023-01-23T16:19:46;13.63;;;7.05;;
71769;SDS011;66386;52.122;5.420;2023-01-23T16:22:14;12.47;;;7.13;;
71769;SDS011;66386;52.122;5.420;2023-01-23T16:24:49;11.38;;;6.50;;
71769;SDS011;66386;52.122;5.420;2023-01-23T16:27:16;12.93;;;6.90;;
71769;SDS011;66386;52.122;5.420;2023-01-23T16:29:46;11.32;;;7.45;;
71769;SDS011;66386;52.122;5.420;2023-01-23T16:32:14;10.75;;;6.63;;
71769;SDS011;66386;52.122;5.420;2023-01-23T16:34:41;12.13;;;7.17;;
71769;SDS011;66386;52.122;5.420;2023-01-23T16:37:10;13.20;;;7.03;;
71769;SDS011;66386;52.122;5.420;2023-01-23T16:39:40;14.50;;;8.52;;
71769;SDS011;66386;52.122;5.420;2023-01-23T16:42:18;15.23;;;8.27;;
71769;SDS011;66386;52.122;5.420;2023-01-23T16:44:48;13.55;;;7.63;;